sensor_id;sensor_type;location;lat;lon;timestamp;P1;durP1;ratioP1;P2;durP2;ratioP2
33786;SDS011;29742;51.540;9.358;2023-11-21T00:02:09;0.20;;;0.20;;
33786;SDS011;29742;51.540;9.358;2023-11-21T00:07:09;0.25;;;0.25;;
33786;SDS011;29742;51.540;9.358;2023-11-21T00:12:10;0.40;;;0.17;;
33786;SDS011;29742;51.540;9.358;2023-11-21T00:17:10;0.45;;;0.20;;
33786;SDS011;29742;51.540;9.358;2023-11-21T00:22:11;1.58;;;0.30;;
33786;SDS011;29742;51.540;9.358;2023-11-21T00:27:11;0.20;;;0.20;;
33786;SDS011;29742;51.540;9.358;2023-11-21T00:32:11;0.20;;;0.20;;
33786;SDS011;29742;51.540;9.358;2023-11-21T00:37:12;0.47;;;0.30;;
33786;SDS011;29742;51.540;9.358;2023-11-21T00:42:12;0.68;;;0.30;;
33786;SDS011;29742;51.540;9.358;2023-11-21T00:47:12;0.40;;;0.30;;
33786;SDS011;29742;51.540;9.358;2023-11-21T00:52:13;0.17;;;0.17;;
33786;SDS011;29742;51.540;9.358;2023-11-21T00:57:13;0.40;;;0.30;;
33786;SDS011;29742;51.540;9.358;2023-11-21T01:02:14;0.38;;;0.17;;
33786;SDS011;29742;51.540;9.358;2023-11-21T01:07:15;0.10;;;0.10;;
33786;SDS011;29742;51.540;9.358;2023-11-21T01:12:15;0.30;;;0.28;;
33786;SDS011;29742;51.540;9.358;2023-11-21T01:17:17;0.63;;;0.32;;
33786;SDS011;29742;51.540;9.358;2023-11-21T01:22:18;0.55;;;0.43;;
33786;SDS011;29742;51.540;9.358;2023-11-21T01:27:22;0.65;;;0.43;;
33786;SDS011;29742;51.540;9.358;2023-11-21T01:32:22;0.82;;;0.40;;
33786;SDS011;29742;51.540;9.358;2023-11-21T01:37:23;0.20;;;0.20;;
33786;SDS011;29742;51.540;9.358;2023-11-21T01:42:24;0.88;;;0.30;;
33786;SDS011;29742;51.540;9.358;2023-11-21T01:47:24;0.40;;;0.30;;
33786;SDS011;29742;51.540;9.358;2023-11-21T01:52:25;0.45;;;0.40;;
33786;SDS011;29742;51.540;9.358;2023-11-21T01:57:26;0.40;;;0.30;;
33786;SDS011;29742;51.540;9.358;2023-11-21T02:02:26;0.32;;;0.32;;
33786;SDS011;29742;51.540;9.358;2023-11-21T02:07:26;0.50;;;0.38;;
33786;SDS011;29742;51.540;9.358;2023-11-21T02:12:27;0.60;;;0.47;;
33786;SDS011;29742;51.540;9.358;2023-11-21T02:17:27;1.02;;;0.40;;
33786;SDS011;29742;51.540;9.358;2023-11-21T02:22:29;0.40;;;0.35;;
33786;SDS011;29742;51.540;9.358;2023-11-21T02:27:31;0.55;;;0.40;;
33786;SDS011;29742;51.540;9.358;2023-11-21T02:32:31;0.30;;;0.20;;
33786;SDS011;29742;51.540;9.358;2023-11-21T02:37:31;0.40;;;0.30;;
33786;SDS011;29742;51.540;9.358;2023-11-21T02:42:32;0.32;;;0.30;;
33786;SDS011;29742;51.540;9.358;2023-11-21T02:47:32;0.73;;;0.22;;
33786;SDS011;29742;51.540;9.358;2023-11-21T02:52:33;0.57;;;0.45;;
33786;SDS011;29742;51.540;9.358;2023-11-21T02:57:35;0.50;;;0.30;;
33786;SDS011;29742;51.540;9.358;2023-11-21T03:02:35;0.82;;;0.40;;
33786;SDS011;29742;51.540;9.358;2023-11-21T03:07:38;0.38;;;0.38;;
33786;SDS011;29742;51.540;9.358;2023-11-21T03:12:39;0.30;;;0.30;;
33786;SDS011;29742;51.540;9.358;2023-11-21T03:17:40;0.52;;;0.22;;
33786;SDS011;29742;51.540;9.358;2023-11-21T03:22:40;0.55;;;0.32;;
33786;SDS011;29742;51.540;9.358;2023-11-21T03:27:40;0.65;;;0.40;;
33786;SDS011;29742;51.540;9.358;2023-11-21T03:32:41;0.55;;;0.47;;
33786;SDS011;29742;51.540;9.358;2023-11-21T03:37:41;0.85;;;0.40;;
33786;SDS011;29742;51.540;9.358;2023-11-21T03:42:43;0.40;;;0.40;;
33786;SDS011;29742;51.540;9.358;2023-11-21T03:47:44;0.20;;;0.20;;
33786;SDS011;29742;51.540;9.358;2023-11-21T03:52:44;0.28;;;0.28;;
33786;SDS011;29742;51.540;9.358;2023-11-21T03:57:44;0.35;;;0.30;;
33786;SDS011;29742;51.540;9.358;2023-11-21T04:02:45;0.63;;;0.43;;
33786;SDS011;29742;51.540;9.358;2023-11-21T04:07:46;0.22;;;0.17;;
33786;SDS011;29742;51.540;9.358;2023-11-21T04:12:46;0.40;;;0.38;;
33786;SDS011;29742;51.540;9.358;2023-11-21T04:17:47;0.20;;;0.20;;
33786;SDS011;29742;51.540;9.358;2023-11-21T04:22:47;0.50;;;0.35;;
33786;SDS011;29742;51.540;9.358;2023-11-21T04:27:48;0.13;;;0.13;;
33786;SDS011;29742;51.540;9.358;2023-11-21T04:32:49;0.35;;;0.30;;
33786;SDS011;29742;51.540;9.358;2023-11-21T04:37:50;0.40;;;0.35;;
33786;SDS011;29742;51.540;9.358;2023-11-21T04:42:51;0.32;;;0.20;;
33786;SDS011;29742;51.540;9.358;2023-11-21T04:47:51;0.22;;;0.22;;
33786;SDS011;29742;51.540;9.358;2023-11-21T04:52:52;0.47;;;0.30;;
33786;SDS011;29742;51.540;9.358;2023-11-21T04:57:53;0.63;;;0.38;;
33786;SDS011;29742;51.540;9.358;2023-11-21T05:02:54;0.63;;;0.50;;
33786;SDS011;29742;51.540;9.358;2023-11-21T05:07:54;0.30;;;0.30;;
33786;SDS011;29742;51.540;9.358;2023-11-21T05:12:54;0.57;;;0.40;;
33786;SDS011;29742;51.540;9.358;2023-11-21T05:17:55;0.43;;;0.32;;
33786;SDS011;29742;51.540;9.358;2023-11-21T05:28:00;0.30;;;0.30;;
33786;SDS011;29742;51.540;9.358;2023-11-21T05:33:01;0.50;;;0.30;;
33786;SDS011;29742;51.540;9.358;2023-11-21T05:38:02;0.30;;;0.20;;
33786;SDS011;29742;51.540;9.358;2023-11-21T05:43:02;0.30;;;0.30;;
33786;SDS011;29742;51.540;9.358;2023-11-21T05:48:02;0.30;;;0.30;;
33786;SDS011;29742;51.540;9.358;2023-11-21T05:53:03;0.30;;;0.25;;
33786;SDS011;29742;51.540;9.358;2023-11-21T05:58:04;0.40;;;0.22;;
33786;SDS011;29742;51.540;9.358;2023-11-21T06:03:04;0.43;;;0.40;;
33786;SDS011;29742;51.540;9.358;2023-11-21T06:08:06;0.20;;;0.20;;
33786;SDS011;29742;51.540;9.358;2023-11-21T06:13:07;0.30;;;0.30;;
33786;SDS011;29742;51.540;9.358;2023-11-21T06:18:08;0.35;;;0.30;;
33786;SDS011;29742;51.540;9.358;2023-11-21T06:23:10;0.40;;;0.40;;
33786;SDS011;29742;51.540;9.358;2023-11-21T06:28:10;0.60;;;0.32;;
33786;SDS011;29742;51.540;9.358;2023-11-21T06:33:11;0.25;;;0.20;;
33786;SDS011;29742;51.540;9.358;2023-11-21T06:38:11;0.40;;;0.30;;
33786;SDS011;29742;51.540;9.358;2023-11-21T06:43:12;0.20;;;0.15;;
33786;SDS011;29742;51.540;9.358;2023-11-21T06:48:14;0.35;;;0.30;;
33786;SDS011;29742;51.540;9.358;2023-11-21T06:53:14;0.28;;;0.20;;
33786;SDS011;29742;51.540;9.358;2023-11-21T06:58:15;0.20;;;0.20;;
33786;SDS011;29742;51.540;9.358;2023-11-21T07:03:15;0.30;;;0.30;;
33786;SDS011;29742;51.540;9.358;2023-11-21T07:08:16;0.20;;;0.20;;
33786;SDS011;29742;51.540;9.358;2023-11-21T07:13:16;0.52;;;0.50;;
33786;SDS011;29742;51.540;9.358;2023-11-21T07:18:16;0.32;;;0.32;;
33786;SDS011;29742;51.540;9.358;2023-11-21T07:23:17;0.82;;;0.40;;
33786;SDS011;29742;51.540;9.358;2023-11-21T07:28:18;0.63;;;0.50;;
33786;SDS011;29742;51.540;9.358;2023-11-21T07:33:18;0.45;;;0.40;;
33786;SDS011;29742;51.540;9.358;2023-11-21T07:38:18;0.90;;;0.40;;
33786;SDS011;29742;51.540;9.358;2023-11-21T07:43:19;0.65;;;0.43;;
33786;SDS011;29742;51.540;9.358;2023-11-21T07:48:19;0.93;;;0.50;;
33786;SDS011;29742;51.540;9.358;2023-11-21T07:53:20;0.73;;;0.40;;
33786;SDS011;29742;51.540;9.358;2023-11-21T07:58:20;1.17;;;0.40;;
33786;SDS011;29742;51.540;9.358;2023-11-21T08:03:20;0.68;;;0.43;;
33786;SDS011;29742;51.540;9.358;2023-11-21T08:08:21;0.88;;;0.43;;
33786;SDS011;29742;51.540;9.358;2023-11-21T08:13:22;0.70;;;0.60;;
33786;SDS011;29742;51.540;9.358;2023-11-21T08:18:25;1.10;;;0.52;;
33786;SDS011;29742;51.540;9.358;2023-11-21T08:23:26;0.45;;;0.28;;
33786;SDS011;29742;51.540;9.358;2023-11-21T08:28:26;0.70;;;0.50;;
33786;SDS011;29742;51.540;9.358;2023-11-21T08:33:26;0.30;;;0.30;;
33786;SDS011;29742;51.540;9.358;2023-11-21T08:38:27;0.40;;;0.30;;
33786;SDS011;29742;51.540;9.358;2023-11-21T08:43:29;1.83;;;0.60;;
33786;SDS011;29742;51.540;9.358;2023-11-21T08:48:29;0.80;;;0.50;;
33786;SDS011;29742;51.540;9.358;2023-11-21T08:53:29;0.65;;;0.40;;
33786;SDS011;29742;51.540;9.358;2023-11-21T08:58:31;1.63;;;0.55;;
33786;SDS011;29742;51.540;9.358;2023-11-21T09:03:32;1.52;;;0.55;;
33786;SDS011;29742;51.540;9.358;2023-11-21T09:08:34;1.50;;;0.40;;
33786;SDS011;29742;51.540;9.358;2023-11-21T09:13:34;0.85;;;0.70;;
33786;SDS011;29742;51.540;9.358;2023-11-21T09:18:34;1.83;;;0.60;;
33786;SDS011;29742;51.540;9.358;2023-11-21T09:23:35;1.10;;;0.65;;
33786;SDS011;29742;51.540;9.358;2023-11-21T09:28:35;1.00;;;0.60;;
33786;SDS011;29742;51.540;9.358;2023-11-21T09:33:38;0.80;;;0.55;;
33786;SDS011;29742;51.540;9.358;2023-11-21T09:38:38;0.88;;;0.57;;
33786;SDS011;29742;51.540;9.358;2023-11-21T09:43:39;0.40;;;0.38;;
33786;SDS011;29742;51.540;9.358;2023-11-21T09:48:39;0.82;;;0.55;;
33786;SDS011;29742;51.540;9.358;2023-11-21T09:53:41;1.33;;;0.93;;
33786;SDS011;29742;51.540;9.358;2023-11-21T09:58:43;0.82;;;0.63;;
33786;SDS011;29742;51.540;9.358;2023-11-21T10:03:44;0.93;;;0.82;;
33786;SDS011;29742;51.540;9.358;2023-11-21T10:08:44;1.70;;;0.80;;
33786;SDS011;29742;51.540;9.358;2023-11-21T10:13:45;1.63;;;0.60;;
33786;SDS011;29742;51.540;9.358;2023-11-21T10:18:48;1.00;;;0.70;;
33786;SDS011;29742;51.540;9.358;2023-11-21T10:23:52;0.77;;;0.60;;
33786;SDS011;29742;51.540;9.358;2023-11-21T10:29:01;0.98;;;0.68;;
33786;SDS011;29742;51.540;9.358;2023-11-21T10:34:13;2.97;;;1.00;;
33786;SDS011;29742;51.540;9.358;2023-11-21T10:39:19;0.93;;;0.63;;
33786;SDS011;29742;51.540;9.358;2023-11-21T10:44:23;0.90;;;0.60;;
33786;SDS011;29742;51.540;9.358;2023-11-21T10:49:27;1.38;;;0.45;;
33786;SDS011;29742;51.540;9.358;2023-11-21T10:54:28;0.60;;;0.50;;
33786;SDS011;29742;51.540;9.358;2023-11-21T10:59:29;1.20;;;0.50;;
33786;SDS011;29742;51.540;9.358;2023-11-21T11:04:30;0.75;;;0.43;;
33786;SDS011;29742;51.540;9.358;2023-11-21T11:09:31;0.93;;;0.70;;
33786;SDS011;29742;51.540;9.358;2023-11-21T11:14:35;0.60;;;0.60;;
33786;SDS011;29742;51.540;9.358;2023-11-21T11:19:36;0.73;;;0.50;;
33786;SDS011;29742;51.540;9.358;2023-11-21T11:24:50;1.83;;;0.50;;
33786;SDS011;29742;51.540;9.358;2023-11-21T11:35:24;1.20;;;0.55;;
33786;SDS011;29742;51.540;9.358;2023-11-21T11:40:40;0.75;;;0.50;;
33786;SDS011;29742;51.540;9.358;2023-11-21T11:45:41;0.90;;;0.80;;
33786;SDS011;29742;51.540;9.358;2023-11-21T12:01:24;0.50;;;0.50;;
33786;SDS011;29742;51.540;9.358;2023-11-21T12:06:33;0.40;;;0.35;;
33786;SDS011;29742;51.540;9.358;2023-11-21T12:11:34;0.73;;;0.57;;
33786;SDS011;29742;51.540;9.358;2023-11-21T12:16:36;1.08;;;0.75;;
33786;SDS011;29742;51.540;9.358;2023-11-21T12:21:37;0.75;;;0.45;;
33786;SDS011;29742;51.540;9.358;2023-11-21T12:26:38;0.60;;;0.50;;
33786;SDS011;29742;51.540;9.358;2023-11-21T12:31:38;0.30;;;0.30;;
33786;SDS011;29742;51.540;9.358;2023-11-21T12:36:40;0.47;;;0.40;;
33786;SDS011;29742;51.540;9.358;2023-11-21T12:41:40;0.32;;;0.32;;
33786;SDS011;29742;51.540;9.358;2023-11-21T12:46:42;0.70;;;0.50;;
33786;SDS011;29742;51.540;9.358;2023-11-21T12:51:43;0.50;;;0.50;;
33786;SDS011;29742;51.540;9.358;2023-11-21T12:56:46;0.90;;;0.57;;
33786;SDS011;29742;51.540;9.358;2023-11-21T13:01:47;0.40;;;0.40;;
33786;SDS011;29742;51.540;9.358;2023-11-21T13:06:49;0.68;;;0.52;;
33786;SDS011;29742;51.540;9.358;2023-11-21T13:11:49;0.80;;;0.60;;
33786;SDS011;29742;51.540;9.358;2023-11-21T13:16:50;0.50;;;0.50;;
33786;SDS011;29742;51.540;9.358;2023-11-21T13:21:51;0.57;;;0.50;;
33786;SDS011;29742;51.540;9.358;2023-11-21T13:26:52;0.38;;;0.30;;
33786;SDS011;29742;51.540;9.358;2023-11-21T13:31:54;0.68;;;0.50;;
33786;SDS011;29742;51.540;9.358;2023-11-21T13:36:55;0.40;;;0.40;;
33786;SDS011;29742;51.540;9.358;2023-11-21T13:41:58;0.75;;;0.30;;
33786;SDS011;29742;51.540;9.358;2023-11-21T13:46:59;1.00;;;0.88;;
33786;SDS011;29742;51.540;9.358;2023-11-21T13:51:59;0.50;;;0.40;;
33786;SDS011;29742;51.540;9.358;2023-11-21T13:57:02;0.93;;;0.77;;
33786;SDS011;29742;51.540;9.358;2023-11-21T14:02:03;0.32;;;0.32;;
33786;SDS011;29742;51.540;9.358;2023-11-21T14:07:18;0.57;;;0.40;;
33786;SDS011;29742;51.540;9.358;2023-11-21T14:12:37;0.40;;;0.40;;
33786;SDS011;29742;51.540;9.358;2023-11-21T14:17:41;0.50;;;0.50;;
33786;SDS011;29742;51.540;9.358;2023-11-21T14:22:42;0.60;;;0.60;;
33786;SDS011;29742;51.540;9.358;2023-11-21T14:27:43;0.57;;;0.40;;
33786;SDS011;29742;51.540;9.358;2023-11-21T14:32:43;0.68;;;0.40;;
33786;SDS011;29742;51.540;9.358;2023-11-21T14:37:44;0.43;;;0.43;;
33786;SDS011;29742;51.540;9.358;2023-11-21T14:42:44;1.42;;;0.60;;
33786;SDS011;29742;51.540;9.358;2023-11-21T14:47:47;0.95;;;0.85;;
33786;SDS011;29742;51.540;9.358;2023-11-21T14:52:56;0.85;;;0.60;;
33786;SDS011;29742;51.540;9.358;2023-11-21T14:57:59;0.88;;;0.43;;
33786;SDS011;29742;51.540;9.358;2023-11-21T15:08:04;0.65;;;0.50;;
33786;SDS011;29742;51.540;9.358;2023-11-21T15:13:21;0.82;;;0.70;;
33786;SDS011;29742;51.540;9.358;2023-11-21T15:18:23;1.88;;;0.68;;
33786;SDS011;29742;51.540;9.358;2023-11-21T15:23:24;1.00;;;0.50;;
33786;SDS011;29742;51.540;9.358;2023-11-21T15:28:25;0.50;;;0.43;;
33786;SDS011;29742;51.540;9.358;2023-11-21T15:33:25;0.80;;;0.47;;
33786;SDS011;29742;51.540;9.358;2023-11-21T15:38:27;0.70;;;0.57;;
33786;SDS011;29742;51.540;9.358;2023-11-21T15:43:28;0.57;;;0.57;;
33786;SDS011;29742;51.540;9.358;2023-11-21T15:48:28;0.55;;;0.40;;
33786;SDS011;29742;51.540;9.358;2023-11-21T15:53:30;0.93;;;0.60;;
33786;SDS011;29742;51.540;9.358;2023-11-21T15:58:32;0.50;;;0.40;;
33786;SDS011;29742;51.540;9.358;2023-11-21T16:03:32;1.10;;;0.50;;
33786;SDS011;29742;51.540;9.358;2023-11-21T16:08:33;0.52;;;0.32;;
33786;SDS011;29742;51.540;9.358;2023-11-21T16:13:36;0.35;;;0.32;;
33786;SDS011;29742;51.540;9.358;2023-11-21T16:18:36;0.52;;;0.50;;
33786;SDS011;29742;51.540;9.358;2023-11-21T16:23:37;0.40;;;0.40;;
33786;SDS011;29742;51.540;9.358;2023-11-21T16:28:37;0.65;;;0.50;;
33786;SDS011;29742;51.540;9.358;2023-11-21T16:33:38;0.35;;;0.35;;
33786;SDS011;29742;51.540;9.358;2023-11-21T16:38:39;1.00;;;0.50;;
33786;SDS011;29742;51.540;9.358;2023-11-21T16:43:39;0.68;;;0.50;;
33786;SDS011;29742;51.540;9.358;2023-11-21T16:48:40;0.47;;;0.38;;
33786;SDS011;29742;51.540;9.358;2023-11-21T16:53:40;0.60;;;0.57;;
33786;SDS011;29742;51.540;9.358;2023-11-21T16:58:42;0.38;;;0.38;;
33786;SDS011;29742;51.540;9.358;2023-11-21T17:03:43;0.75;;;0.50;;
33786;SDS011;29742;51.540;9.358;2023-11-21T17:08:44;0.50;;;0.35;;
33786;SDS011;29742;51.540;9.358;2023-11-21T17:13:45;0.32;;;0.32;;
33786;SDS011;29742;51.540;9.358;2023-11-21T17:18:46;0.40;;;0.40;;
33786;SDS011;29742;51.540;9.358;2023-11-21T17:23:46;0.52;;;0.40;;
33786;SDS011;29742;51.540;9.358;2023-11-21T17:28:47;0.65;;;0.50;;
33786;SDS011;29742;51.540;9.358;2023-11-21T17:33:48;0.47;;;0.40;;
33786;SDS011;29742;51.540;9.358;2023-11-21T17:38:48;0.60;;;0.45;;
33786;SDS011;29742;51.540;9.358;2023-11-21T17:43:48;0.50;;;0.50;;
33786;SDS011;29742;51.540;9.358;2023-11-21T17:48:49;1.08;;;0.55;;
33786;SDS011;29742;51.540;9.358;2023-11-21T17:53:52;0.60;;;0.52;;
33786;SDS011;29742;51.540;9.358;2023-11-21T17:58:57;0.65;;;0.43;;
33786;SDS011;29742;51.540;9.358;2023-11-21T18:03:58;0.73;;;0.70;;
33786;SDS011;29742;51.540;9.358;2023-11-21T18:08:59;1.10;;;0.80;;
33786;SDS011;29742;51.540;9.358;2023-11-21T18:14:00;1.27;;;0.70;;
33786;SDS011;29742;51.540;9.358;2023-11-21T18:19:05;0.80;;;0.65;;
33786;SDS011;29742;51.540;9.358;2023-11-21T18:24:06;1.38;;;0.70;;
33786;SDS011;29742;51.540;9.358;2023-11-21T18:29:07;1.70;;;1.02;;
33786;SDS011;29742;51.540;9.358;2023-11-21T18:34:08;4.13;;;1.33;;
33786;SDS011;29742;51.540;9.358;2023-11-21T18:39:08;4.72;;;1.52;;
33786;SDS011;29742;51.540;9.358;2023-11-21T18:44:14;2.72;;;1.40;;
33786;SDS011;29742;51.540;9.358;2023-11-21T18:49:14;3.30;;;1.55;;
33786;SDS011;29742;51.540;9.358;2023-11-21T18:54:15;3.20;;;1.67;;
33786;SDS011;29742;51.540;9.358;2023-11-21T18:59:15;2.63;;;1.30;;
33786;SDS011;29742;51.540;9.358;2023-11-21T19:04:16;2.80;;;1.52;;
33786;SDS011;29742;51.540;9.358;2023-11-21T19:14:21;1.65;;;1.20;;
33786;SDS011;29742;51.540;9.358;2023-11-21T19:19:22;2.35;;;1.40;;
33786;SDS011;29742;51.540;9.358;2023-11-21T19:24:22;2.35;;;1.17;;
33786;SDS011;29742;51.540;9.358;2023-11-21T19:29:23;3.55;;;1.35;;
33786;SDS011;29742;51.540;9.358;2023-11-21T19:34:23;2.88;;;1.40;;
33786;SDS011;29742;51.540;9.358;2023-11-21T19:39:25;1.98;;;1.40;;
33786;SDS011;29742;51.540;9.358;2023-11-21T19:44:25;2.70;;;1.58;;
33786;SDS011;29742;51.540;9.358;2023-11-21T19:49:25;1.88;;;1.20;;
33786;SDS011;29742;51.540;9.358;2023-11-21T19:54:27;2.40;;;1.30;;
33786;SDS011;29742;51.540;9.358;2023-11-21T19:59:27;1.23;;;0.80;;
33786;SDS011;29742;51.540;9.358;2023-11-21T20:04:29;1.73;;;1.00;;
33786;SDS011;29742;51.540;9.358;2023-11-21T20:09:29;2.00;;;1.15;;
33786;SDS011;29742;51.540;9.358;2023-11-21T20:14:30;1.58;;;0.75;;
33786;SDS011;29742;51.540;9.358;2023-11-21T20:19:32;1.73;;;1.10;;
33786;SDS011;29742;51.540;9.358;2023-11-21T20:24:32;1.38;;;1.00;;
33786;SDS011;29742;51.540;9.358;2023-11-21T20:29:35;1.48;;;1.10;;
33786;SDS011;29742;51.540;9.358;2023-11-21T20:34:38;1.10;;;0.88;;
33786;SDS011;29742;51.540;9.358;2023-11-21T20:39:39;1.40;;;0.90;;
33786;SDS011;29742;51.540;9.358;2023-11-21T20:44:40;1.33;;;0.90;;
33786;SDS011;29742;51.540;9.358;2023-11-21T20:49:40;1.33;;;0.85;;
33786;SDS011;29742;51.540;9.358;2023-11-21T20:54:40;1.80;;;1.08;;
33786;SDS011;29742;51.540;9.358;2023-11-21T20:59:41;1.48;;;0.80;;
33786;SDS011;29742;51.540;9.358;2023-11-21T21:04:43;0.80;;;0.75;;
33786;SDS011;29742;51.540;9.358;2023-11-21T21:09:43;1.27;;;0.90;;
33786;SDS011;29742;51.540;9.358;2023-11-21T21:14:44;1.50;;;1.00;;
33786;SDS011;29742;51.540;9.358;2023-11-21T21:19:44;1.58;;;0.95;;
33786;SDS011;29742;51.540;9.358;2023-11-21T21:24:44;1.20;;;0.90;;
33786;SDS011;29742;51.540;9.358;2023-11-21T21:29:45;0.90;;;0.60;;
33786;SDS011;29742;51.540;9.358;2023-11-21T21:34:45;1.92;;;1.08;;
33786;SDS011;29742;51.540;9.358;2023-11-21T21:39:46;1.23;;;0.80;;
33786;SDS011;29742;51.540;9.358;2023-11-21T21:44:47;1.30;;;1.00;;
33786;SDS011;29742;51.540;9.358;2023-11-21T21:49:49;1.38;;;0.95;;
33786;SDS011;29742;51.540;9.358;2023-11-21T21:54:50;0.60;;;0.60;;
33786;SDS011;29742;51.540;9.358;2023-11-21T21:59:51;1.08;;;0.75;;
33786;SDS011;29742;51.540;9.358;2023-11-21T22:04:52;0.82;;;0.68;;
33786;SDS011;29742;51.540;9.358;2023-11-21T22:09:52;1.23;;;0.90;;
33786;SDS011;29742;51.540;9.358;2023-11-21T22:14:52;0.82;;;0.70;;
33786;SDS011;29742;51.540;9.358;2023-11-21T22:19:53;1.50;;;0.70;;
33786;SDS011;29742;51.540;9.358;2023-11-21T22:24:54;1.10;;;0.68;;
33786;SDS011;29742;51.540;9.358;2023-11-21T22:29:54;0.77;;;0.52;;
33786;SDS011;29742;51.540;9.358;2023-11-21T22:34:55;0.40;;;0.40;;
33786;SDS011;29742;51.540;9.358;2023-11-21T22:39:56;0.95;;;0.68;;
33786;SDS011;29742;51.540;9.358;2023-11-21T22:44:57;0.88;;;0.60;;
33786;SDS011;29742;51.540;9.358;2023-11-21T22:49:57;1.30;;;0.93;;
33786;SDS011;29742;51.540;9.358;2023-11-21T22:54:57;0.77;;;0.32;;
33786;SDS011;29742;51.540;9.358;2023-11-21T22:59:58;1.02;;;0.65;;
33786;SDS011;29742;51.540;9.358;2023-11-21T23:04:58;1.02;;;0.50;;
33786;SDS011;29742;51.540;9.358;2023-11-21T23:09:59;1.10;;;0.70;;
33786;SDS011;29742;51.540;9.358;2023-11-21T23:14:59;1.27;;;0.45;;
33786;SDS011;29742;51.540;9.358;2023-11-21T23:19:59;1.02;;;0.50;;
33786;SDS011;29742;51.540;9.358;2023-11-21T23:25:05;0.52;;;0.30;;
33786;SDS011;29742;51.540;9.358;2023-11-21T23:30:06;0.60;;;0.50;;
33786;SDS011;29742;51.540;9.358;2023-11-21T23:35:08;0.50;;;0.40;;
33786;SDS011;29742;51.540;9.358;2023-11-21T23:40:10;0.73;;;0.50;;
33786;SDS011;29742;51.540;9.358;2023-11-21T23:45:11;0.73;;;0.40;;
33786;SDS011;29742;51.540;9.358;2023-11-21T23:50:12;0.93;;;0.40;;
33786;SDS011;29742;51.540;9.358;2023-11-21T23:55:13;0.75;;;0.47;;
